Island Lake Airport
CYIV : now visible

Airfield :











YOU CAN JOIN US ON...

 
LOGIN :

Register | Disclaimer

   EN    FR    IT 

 









Legend :    VFR   Marginal VFR   IFR   Intensive IFR   Very Intensive IFR
Visi :
Ceiling :
>= 8 km
>= 3000ft
5 to 8 km
1000 to 3000 ft
1500m to 5 km
500 to 1000 ft
800 to 1500m
200 to 500 ft
< 800m
< 200 ft
Symbols :   Thunderstorms  Fog  Heavy snow  Heavy precipitations  Wind > 20 kt







- Airport Elevation : 770 ft
- IATA code : YIV


CYIV - Island Lake

CURRENT METAR :
  • 211000Z 18004KT 120V190 15SM BKN100 02/01 A3015 RMK AC7 SLP222

EXPIRED METARs :
  • 210900Z 00000KT 15SM BKN100 02/01 A3013 RMK AC7 SLP216
  • 210800Z 00000KT 15SM SCT200 03/00 A3014 RMK CI3 SLP217

TAF TAF CYIV
Valid from the 21 at 07:00 until the 21 at 19:00 UTC


210638Z 2107/2119 VRB03KT P6SM BKN200 RMK NXT FCST BY 211300Z
CZWG FIR / North America



MET'MAP, your aeronautical weather chart ! - Copyright ORBIFLY December 2007 - Disclaimer

ORBIFLY MET'MAP TEAM :

Programming & Development : Alexandra Zaïnal
Concept & Development : Baudouin d'Aumeries
Co-Development & Prog : Marc-Olivier Méhu
Technical & hardware support : Manuel Goepfert

Contact : metmap@orbifly.com




SOURCES & CREDITS :

   NOAA       Earth
Advisory